sensor_id;sensor_type;location;lat;lon;timestamp;pressure;altitude;pressure_sealevel;temperature;humidity
13486;BME280;6815;59.336;17.998;2023-07-16T00:00:00;52073.19;;;-145.37;55.80
13486;BME280;6815;59.336;17.998;2023-07-16T00:02:26;52141.06;;;-145.37;55.79
13486;BME280;6815;59.336;17.998;2023-07-16T00:04:51;52041.25;;;-145.37;55.73
13486;BME280;6815;59.336;17.998;2023-07-16T00:07:17;52017.28;;;-145.37;56.05
13486;BME280;6815;59.336;17.998;2023-07-16T00:09:44;52093.16;;;-145.37;56.64
13486;BME280;6815;59.336;17.998;2023-07-16T00:12:09;52041.25;;;-145.37;56.70
13486;BME280;6815;59.336;17.998;2023-07-16T00:14:35;52041.25;;;-145.37;57.01
13486;BME280;6815;59.336;17.998;2023-07-16T00:17:00;52089.16;;;-145.37;57.42
13486;BME280;6815;59.336;17.998;2023-07-16T00:19:25;52067.19;;;-145.37;57.11
13486;BME280;6815;59.336;17.998;2023-07-16T00:21:51;52023.28;;;-145.37;57.02
13486;BME280;6815;59.336;17.998;2023-07-16T00:24:16;52045.25;;;-145.37;57.10
13486;BME280;6815;59.336;17.998;2023-07-16T00:26:41;52075.19;;;-145.37;57.41
13486;BME280;6815;59.336;17.998;2023-07-16T00:29:07;52049.22;;;-145.37;57.64
13486;BME280;6815;59.336;17.998;2023-07-16T00:31:32;52079.19;;;-145.37;57.52
13486;BME280;6815;59.336;17.998;2023-07-16T00:33:58;52057.22;;;-145.37;58.33
13486;BME280;6815;59.336;17.998;2023-07-16T00:36:23;52119.09;;;-145.37;58.60
13486;BME280;6815;59.336;17.998;2023-07-16T00:38:49;52069.19;;;-145.37;58.85
13486;BME280;6815;59.336;17.998;2023-07-16T00:41:15;52045.25;;;-145.37;59.50
13486;BME280;6815;59.336;17.998;2023-07-16T00:43:40;52091.16;;;-145.37;59.75
13486;BME280;6815;59.336;17.998;2023-07-16T00:46:07;52097.13;;;-145.37;59.36
13486;BME280;6815;59.336;17.998;2023-07-16T00:48:32;52075.19;;;-145.37;59.89
13486;BME280;6815;59.336;17.998;2023-07-16T00:51:00;52055.22;;;-145.37;60.42
13486;BME280;6815;59.336;17.998;2023-07-16T00:53:26;52081.16;;;-145.37;59.84
13486;BME280;6815;59.336;17.998;2023-07-16T00:55:52;52057.22;;;-145.37;60.50
13486;BME280;6815;59.336;17.998;2023-07-16T00:58:17;52043.25;;;-145.37;60.48
13486;BME280;6815;59.336;17.998;2023-07-16T01:00:43;52107.13;;;-145.37;60.60
13486;BME280;6815;59.336;17.998;2023-07-16T01:03:10;52061.22;;;-145.37;60.54
13486;BME280;6815;59.336;17.998;2023-07-16T01:08:09;52057.22;;;-145.37;60.61
13486;BME280;6815;59.336;17.998;2023-07-16T01:10:38;52065.19;;;-145.37;60.89
13486;BME280;6815;59.336;17.998;2023-07-16T01:13:04;52051.22;;;-145.37;60.73
13486;BME280;6815;59.336;17.998;2023-07-16T01:15:30;52047.25;;;-145.37;61.04
13486;BME280;6815;59.336;17.998;2023-07-16T01:17:55;52023.28;;;-145.37;60.85
13486;BME280;6815;59.336;17.998;2023-07-16T01:20:21;52047.25;;;-145.37;60.71
13486;BME280;6815;59.336;17.998;2023-07-16T01:25:43;52055.22;;;-145.37;60.41
13486;BME280;6815;59.336;17.998;2023-07-16T01:28:27;52063.22;;;-145.37;60.64
13486;BME280;6815;59.336;17.998;2023-07-16T01:30:58;52041.25;;;-145.37;60.25
13486;BME280;6815;59.336;17.998;2023-07-16T01:33:25;52151.03;;;-145.37;60.03
13486;BME280;6815;59.336;17.998;2023-07-16T01:35:51;52053.22;;;-145.37;59.64
13486;BME280;6815;59.336;17.998;2023-07-16T01:38:17;52057.22;;;-145.37;60.05
13486;BME280;6815;59.336;17.998;2023-07-16T01:40:44;52087.16;;;-145.37;60.23
13486;BME280;6815;59.336;17.998;2023-07-16T01:43:09;52081.16;;;-145.37;60.08
13486;BME280;6815;59.336;17.998;2023-07-16T01:45:35;52085.16;;;-145.37;60.32
13486;BME280;6815;59.336;17.998;2023-07-16T01:48:34;52053.22;;;-145.37;60.38
13486;BME280;6815;59.336;17.998;2023-07-16T01:51:01;52073.19;;;-145.37;60.20
13486;BME280;6815;59.336;17.998;2023-07-16T01:53:26;52075.19;;;-145.37;60.21
13486;BME280;6815;59.336;17.998;2023-07-16T01:55:52;52083.16;;;-145.37;60.10
13486;BME280;6815;59.336;17.998;2023-07-16T01:58:17;52125.09;;;-145.37;59.70
13486;BME280;6815;59.336;17.998;2023-07-16T02:00:43;52075.19;;;-145.37;59.69
13486;BME280;6815;59.336;17.998;2023-07-16T02:03:08;52081.16;;;-145.37;59.94
13486;BME280;6815;59.336;17.998;2023-07-16T02:05:33;52033.25;;;-145.37;59.91
13486;BME280;6815;59.336;17.998;2023-07-16T02:07:59;52037.25;;;-145.37;59.86
13486;BME280;6815;59.336;17.998;2023-07-16T02:10:25;52093.16;;;-145.37;60.08
13486;BME280;6815;59.336;17.998;2023-07-16T02:12:50;52059.22;;;-145.37;60.15
13486;BME280;6815;59.336;17.998;2023-07-16T02:15:16;52049.22;;;-145.37;59.78
13486;BME280;6815;59.336;17.998;2023-07-16T02:17:43;52043.25;;;-145.37;59.52
13486;BME280;6815;59.336;17.998;2023-07-16T02:20:09;52091.16;;;-145.37;59.77
13486;BME280;6815;59.336;17.998;2023-07-16T02:22:36;52073.19;;;-145.37;59.72
13486;BME280;6815;59.336;17.998;2023-07-16T02:25:01;52061.22;;;-145.37;59.89
13486;BME280;6815;59.336;17.998;2023-07-16T02:27:27;52079.19;;;-145.37;59.71
13486;BME280;6815;59.336;17.998;2023-07-16T02:29:53;52081.16;;;-145.37;59.85
13486;BME280;6815;59.336;17.998;2023-07-16T02:32:18;52055.22;;;-145.37;59.75
13486;BME280;6815;59.336;17.998;2023-07-16T02:34:43;52059.22;;;-145.37;59.77
13486;BME280;6815;59.336;17.998;2023-07-16T02:37:09;52047.25;;;-145.37;59.90
13486;BME280;6815;59.336;17.998;2023-07-16T02:39:34;52061.22;;;-145.37;60.22
13486;BME280;6815;59.336;17.998;2023-07-16T02:42:00;52085.16;;;-145.37;60.61
13486;BME280;6815;59.336;17.998;2023-07-16T02:44:25;52095.16;;;-145.37;60.68
13486;BME280;6815;59.336;17.998;2023-07-16T02:46:51;52085.16;;;-145.37;61.26
13486;BME280;6815;59.336;17.998;2023-07-16T02:49:16;52051.22;;;-145.37;61.33
13486;BME280;6815;59.336;17.998;2023-07-16T02:51:41;52079.19;;;-145.37;60.98
13486;BME280;6815;59.336;17.998;2023-07-16T02:54:07;52081.16;;;-145.37;60.81
13486;BME280;6815;59.336;17.998;2023-07-16T02:56:32;52043.25;;;-145.37;60.51
13486;BME280;6815;59.336;17.998;2023-07-16T02:58:57;52029.28;;;-145.37;60.48
13486;BME280;6815;59.336;17.998;2023-07-16T03:01:23;52085.16;;;-145.37;60.51
13486;BME280;6815;59.336;17.998;2023-07-16T03:03:49;52085.16;;;-145.37;60.93
13486;BME280;6815;59.336;17.998;2023-07-16T03:06:14;52133.06;;;-145.37;61.50
13486;BME280;6815;59.336;17.998;2023-07-16T03:08:40;52057.22;;;-145.37;62.19
13486;BME280;6815;59.336;17.998;2023-07-16T03:11:05;52067.19;;;-145.37;62.20
13486;BME280;6815;59.336;17.998;2023-07-16T03:13:31;52073.19;;;-145.37;62.34
13486;BME280;6815;59.336;17.998;2023-07-16T03:15:56;52049.22;;;-145.37;62.50
13486;BME280;6815;59.336;17.998;2023-07-16T03:18:22;52055.22;;;-145.37;62.41
13486;BME280;6815;59.336;17.998;2023-07-16T03:20:47;52063.22;;;-145.37;62.49
13486;BME280;6815;59.336;17.998;2023-07-16T03:23:13;52111.13;;;-145.37;62.75
13486;BME280;6815;59.336;17.998;2023-07-16T03:25:39;52065.19;;;-145.37;63.11
13486;BME280;6815;59.336;17.998;2023-07-16T03:28:04;52063.22;;;-145.37;62.68
13486;BME280;6815;59.336;17.998;2023-07-16T03:30:32;52065.19;;;-145.37;63.27
13486;BME280;6815;59.336;17.998;2023-07-16T03:32:58;52071.19;;;-145.37;63.72
13486;BME280;6815;59.336;17.998;2023-07-16T03:35:24;52085.16;;;-145.37;64.68
13486;BME280;6815;59.336;17.998;2023-07-16T03:37:50;52105.13;;;-145.37;65.01
13486;BME280;6815;59.336;17.998;2023-07-16T03:40:17;52091.16;;;-145.37;65.12
13486;BME280;6815;59.336;17.998;2023-07-16T03:42:43;52031.25;;;-145.37;65.10
13486;BME280;6815;59.336;17.998;2023-07-16T03:45:10;52035.25;;;-145.37;65.03
13486;BME280;6815;59.336;17.998;2023-07-16T03:47:36;52101.13;;;-145.37;65.72
13486;BME280;6815;59.336;17.998;2023-07-16T03:50:02;52085.16;;;-145.37;66.50
13486;BME280;6815;59.336;17.998;2023-07-16T03:52:27;52059.22;;;-145.37;66.44
13486;BME280;6815;59.336;17.998;2023-07-16T03:54:54;52075.19;;;-145.37;67.33
13486;BME280;6815;59.336;17.998;2023-07-16T03:57:19;52013.31;;;-145.37;67.28
13486;BME280;6815;59.336;17.998;2023-07-16T03:59:45;52091.16;;;-145.37;68.89
13486;BME280;6815;59.336;17.998;2023-07-16T04:02:10;52081.16;;;-145.37;70.14
13486;BME280;6815;59.336;17.998;2023-07-16T04:04:35;52079.19;;;-145.37;69.97
13486;BME280;6815;59.336;17.998;2023-07-16T04:07:01;52055.22;;;-145.37;71.11
13486;BME280;6815;59.336;17.998;2023-07-16T04:09:27;52075.19;;;-145.37;71.76
13486;BME280;6815;59.336;17.998;2023-07-16T04:11:52;52085.16;;;-145.37;72.25
13486;BME280;6815;59.336;17.998;2023-07-16T04:14:17;52075.19;;;-145.37;73.25
13486;BME280;6815;59.336;17.998;2023-07-16T04:16:43;52055.22;;;-145.37;74.69
13486;BME280;6815;59.336;17.998;2023-07-16T04:19:09;52045.25;;;-145.37;74.82
13486;BME280;6815;59.336;17.998;2023-07-16T04:21:34;52109.13;;;-145.37;75.79
13486;BME280;6815;59.336;17.998;2023-07-16T04:24:04;52175.00;;;-145.37;75.35
13486;BME280;6815;59.336;17.998;2023-07-16T04:26:30;52049.22;;;-145.37;76.22
13486;BME280;6815;59.336;17.998;2023-07-16T04:28:56;52083.16;;;-145.37;76.17
13486;BME280;6815;59.336;17.998;2023-07-16T04:31:22;52089.16;;;-145.37;76.57
13486;BME280;6815;59.336;17.998;2023-07-16T04:33:47;52055.22;;;-145.37;77.02
13486;BME280;6815;59.336;17.998;2023-07-16T04:36:13;52121.09;;;-145.37;78.18
13486;BME280;6815;59.336;17.998;2023-07-16T04:38:38;52089.16;;;-145.37;78.13
13486;BME280;6815;59.336;17.998;2023-07-16T04:41:03;52073.19;;;-145.37;77.34
13486;BME280;6815;59.336;17.998;2023-07-16T04:43:29;52115.09;;;-145.37;78.88
13486;BME280;6815;59.336;17.998;2023-07-16T04:45:54;52085.16;;;-145.37;78.78
13486;BME280;6815;59.336;17.998;2023-07-16T04:48:20;52081.16;;;-145.37;79.03
13486;BME280;6815;59.336;17.998;2023-07-16T04:50:45;52093.16;;;-145.37;79.04
13486;BME280;6815;59.336;17.998;2023-07-16T04:53:10;52051.22;;;-145.37;79.67
13486;BME280;6815;59.336;17.998;2023-07-16T04:55:37;52083.16;;;-145.37;79.36
13486;BME280;6815;59.336;17.998;2023-07-16T04:58:03;52063.22;;;-145.37;79.26
13486;BME280;6815;59.336;17.998;2023-07-16T05:00:28;52153.03;;;-145.37;79.26
13486;BME280;6815;59.336;17.998;2023-07-16T05:02:53;52127.09;;;-145.37;78.83
13486;BME280;6815;59.336;17.998;2023-07-16T05:05:19;52035.25;;;-145.37;78.21
13486;BME280;6815;59.336;17.998;2023-07-16T05:07:44;52061.22;;;-145.37;78.81
13486;BME280;6815;59.336;17.998;2023-07-16T05:10:10;52111.13;;;-145.37;78.85
13486;BME280;6815;59.336;17.998;2023-07-16T05:12:35;52061.22;;;-145.37;78.62
13486;BME280;6815;59.336;17.998;2023-07-16T05:15:01;52055.22;;;-145.37;77.57
13486;BME280;6815;59.336;17.998;2023-07-16T05:17:26;52087.16;;;-145.37;77.37
13486;BME280;6815;59.336;17.998;2023-07-16T05:19:52;52069.19;;;-145.37;77.47
13486;BME280;6815;59.336;17.998;2023-07-16T05:22:17;52071.19;;;-145.37;76.65
13486;BME280;6815;59.336;17.998;2023-07-16T05:24:42;52125.09;;;-145.37;76.60
13486;BME280;6815;59.336;17.998;2023-07-16T05:27:08;52089.16;;;-145.37;75.89
13486;BME280;6815;59.336;17.998;2023-07-16T05:29:34;52071.19;;;-145.37;75.87
13486;BME280;6815;59.336;17.998;2023-07-16T05:31:59;52081.16;;;-145.37;75.51
13486;BME280;6815;59.336;17.998;2023-07-16T05:34:25;52101.13;;;-145.37;75.09
13486;BME280;6815;59.336;17.998;2023-07-16T05:36:53;52067.19;;;-145.37;75.07
13486;BME280;6815;59.336;17.998;2023-07-16T05:39:19;52093.16;;;-145.37;74.92
13486;BME280;6815;59.336;17.998;2023-07-16T05:41:44;52075.19;;;-145.37;74.46
13486;BME280;6815;59.336;17.998;2023-07-16T05:44:10;52051.22;;;-145.37;73.78
13486;BME280;6815;59.336;17.998;2023-07-16T05:46:35;52051.22;;;-145.37;73.05
13486;BME280;6815;59.336;17.998;2023-07-16T05:49:00;52079.19;;;-145.37;71.80
13486;BME280;6815;59.336;17.998;2023-07-16T05:51:26;52083.16;;;-145.37;70.47
13486;BME280;6815;59.336;17.998;2023-07-16T05:53:51;52077.19;;;-145.37;68.49
13486;BME280;6815;59.336;17.998;2023-07-16T05:56:17;52055.22;;;-145.37;66.72
13486;BME280;6815;59.336;17.998;2023-07-16T05:58:42;52151.03;;;-145.37;66.24
13486;BME280;6815;59.336;17.998;2023-07-16T06:01:08;52027.28;;;-145.37;65.05
13486;BME280;6815;59.336;17.998;2023-07-16T06:03:33;52029.28;;;-145.37;65.26
13486;BME280;6815;59.336;17.998;2023-07-16T06:05:59;52059.22;;;-145.37;65.83
13486;BME280;6815;59.336;17.998;2023-07-16T06:08:24;52051.22;;;-145.37;65.70
13486;BME280;6815;59.336;17.998;2023-07-16T06:10:50;52041.25;;;-145.37;65.55
13486;BME280;6815;59.336;17.998;2023-07-16T06:13:16;52041.25;;;-145.37;65.84
13486;BME280;6815;59.336;17.998;2023-07-16T06:15:41;52049.22;;;-145.37;66.04
13486;BME280;6815;59.336;17.998;2023-07-16T06:18:07;52069.19;;;-145.37;65.99
13486;BME280;6815;59.336;17.998;2023-07-16T06:20:32;52047.25;;;-145.37;65.84
13486;BME280;6815;59.336;17.998;2023-07-16T06:22:58;52045.25;;;-145.37;65.47
13486;BME280;6815;59.336;17.998;2023-07-16T06:25:23;52061.22;;;-145.37;65.60
13486;BME280;6815;59.336;17.998;2023-07-16T06:27:49;52045.25;;;-145.37;64.95
13486;BME280;6815;59.336;17.998;2023-07-16T06:30:14;52063.22;;;-145.37;64.90
13486;BME280;6815;59.336;17.998;2023-07-16T06:32:39;52075.19;;;-145.37;64.86
13486;BME280;6815;59.336;17.998;2023-07-16T06:35:05;52081.16;;;-145.37;64.73
13486;BME280;6815;59.336;17.998;2023-07-16T06:37:30;52085.16;;;-145.37;64.61
13486;BME280;6815;59.336;17.998;2023-07-16T06:39:57;52083.16;;;-145.37;64.38
13486;BME280;6815;59.336;17.998;2023-07-16T06:42:22;52051.22;;;-145.37;64.36
13486;BME280;6815;59.336;17.998;2023-07-16T06:44:47;52051.22;;;-145.37;63.88
13486;BME280;6815;59.336;17.998;2023-07-16T06:47:13;52105.13;;;-145.37;64.11
13486;BME280;6815;59.336;17.998;2023-07-16T06:49:38;52045.25;;;-145.37;63.76
13486;BME280;6815;59.336;17.998;2023-07-16T06:52:04;52093.16;;;-145.37;63.66
13486;BME280;6815;59.336;17.998;2023-07-16T06:54:29;52041.25;;;-145.37;63.56
13486;BME280;6815;59.336;17.998;2023-07-16T06:56:55;52141.06;;;-145.37;63.27
13486;BME280;6815;59.336;17.998;2023-07-16T06:59:20;52081.16;;;-145.37;63.16
13486;BME280;6815;59.336;17.998;2023-07-16T07:01:46;52057.22;;;-145.37;63.12
13486;BME280;6815;59.336;17.998;2023-07-16T07:04:12;52081.16;;;-145.37;63.15
13486;BME280;6815;59.336;17.998;2023-07-16T07:06:37;52065.19;;;-145.37;63.16
13486;BME280;6815;59.336;17.998;2023-07-16T07:09:03;52105.13;;;-145.37;63.39
13486;BME280;6815;59.336;17.998;2023-07-16T07:11:28;52065.19;;;-145.37;63.35
13486;BME280;6815;59.336;17.998;2023-07-16T07:13:54;52059.22;;;-145.37;63.68
13486;BME280;6815;59.336;17.998;2023-07-16T07:16:19;52001.31;;;-145.37;63.69
13486;BME280;6815;59.336;17.998;2023-07-16T07:18:44;52093.16;;;-145.37;64.09
13486;BME280;6815;59.336;17.998;2023-07-16T07:21:10;52025.28;;;-145.37;64.48
13486;BME280;6815;59.336;17.998;2023-07-16T07:23:35;52035.25;;;-145.37;64.54
13486;BME280;6815;59.336;17.998;2023-07-16T07:26:01;52041.25;;;-145.37;64.73
13486;BME280;6815;59.336;17.998;2023-07-16T07:28:27;52059.22;;;-145.37;65.06
13486;BME280;6815;59.336;17.998;2023-07-16T07:30:52;52045.25;;;-145.37;65.45
13486;BME280;6815;59.336;17.998;2023-07-16T07:33:17;52079.19;;;-145.37;65.80
13486;BME280;6815;59.336;17.998;2023-07-16T07:35:43;52075.19;;;-145.37;65.92
13486;BME280;6815;59.336;17.998;2023-07-16T07:38:08;52065.19;;;-145.37;66.11
13486;BME280;6815;59.336;17.998;2023-07-16T07:40:33;52051.22;;;-145.37;66.26
13486;BME280;6815;59.336;17.998;2023-07-16T07:42:59;52041.25;;;-145.37;66.26
13486;BME280;6815;59.336;17.998;2023-07-16T07:45:25;52049.22;;;-145.37;66.38
13486;BME280;6815;59.336;17.998;2023-07-16T07:47:51;52109.13;;;-145.37;66.45
13486;BME280;6815;59.336;17.998;2023-07-16T07:50:16;52101.13;;;-145.37;66.28
13486;BME280;6815;59.336;17.998;2023-07-16T07:52:42;51995.34;;;-145.37;66.52
13486;BME280;6815;59.336;17.998;2023-07-16T07:55:07;52065.19;;;-145.37;66.58
13486;BME280;6815;59.336;17.998;2023-07-16T07:57:33;52065.19;;;-145.37;66.91
13486;BME280;6815;59.336;17.998;2023-07-16T07:59:58;52055.22;;;-145.37;66.84
13486;BME280;6815;59.336;17.998;2023-07-16T08:02:24;52047.25;;;-145.37;66.74
13486;BME280;6815;59.336;17.998;2023-07-16T08:04:53;52085.16;;;-145.37;66.50
13486;BME280;6815;59.336;17.998;2023-07-16T08:07:20;52073.19;;;-145.37;66.57
13486;BME280;6815;59.336;17.998;2023-07-16T08:09:46;52047.25;;;-145.37;66.74
13486;BME280;6815;59.336;17.998;2023-07-16T08:12:12;52069.19;;;-145.37;66.85
13486;BME280;6815;59.336;17.998;2023-07-16T08:14:37;52053.22;;;-145.37;66.64
13486;BME280;6815;59.336;17.998;2023-07-16T08:17:03;52059.22;;;-145.37;66.88
13486;BME280;6815;59.336;17.998;2023-07-16T08:19:28;52063.22;;;-145.37;66.93
13486;BME280;6815;59.336;17.998;2023-07-16T08:21:54;52059.22;;;-145.37;67.05
13486;BME280;6815;59.336;17.998;2023-07-16T08:24:19;52029.28;;;-145.37;66.75
13486;BME280;6815;59.336;17.998;2023-07-16T08:26:45;52055.22;;;-145.37;66.97
13486;BME280;6815;59.336;17.998;2023-07-16T08:29:10;52071.19;;;-145.37;67.06
13486;BME280;6815;59.336;17.998;2023-07-16T08:31:35;52069.19;;;-145.37;67.18
13486;BME280;6815;59.336;17.998;2023-07-16T08:34:01;52083.16;;;-145.37;67.50
13486;BME280;6815;59.336;17.998;2023-07-16T08:36:26;52103.13;;;-145.37;68.57
13486;BME280;6815;59.336;17.998;2023-07-16T08:38:52;52089.16;;;-145.37;69.57
13486;BME280;6815;59.336;17.998;2023-07-16T08:41:17;52113.09;;;-145.37;70.01
13486;BME280;6815;59.336;17.998;2023-07-16T08:43:46;52045.25;;;-145.37;70.58
13486;BME280;6815;59.336;17.998;2023-07-16T08:46:12;52051.22;;;-145.37;71.11
13486;BME280;6815;59.336;17.998;2023-07-16T08:48:38;52053.22;;;-145.37;71.16
13486;BME280;6815;59.336;17.998;2023-07-16T08:51:04;52069.19;;;-145.37;71.36
13486;BME280;6815;59.336;17.998;2023-07-16T08:53:31;52091.16;;;-145.37;71.59
13486;BME280;6815;59.336;17.998;2023-07-16T08:55:57;52057.22;;;-145.37;72.37
13486;BME280;6815;59.336;17.998;2023-07-16T08:58:23;52051.22;;;-145.37;73.03
13486;BME280;6815;59.336;17.998;2023-07-16T09:00:49;52085.16;;;-145.37;73.67
13486;BME280;6815;59.336;17.998;2023-07-16T09:03:16;52061.22;;;-145.37;74.55
13486;BME280;6815;59.336;17.998;2023-07-16T09:05:42;52055.22;;;-145.37;74.85
13486;BME280;6815;59.336;17.998;2023-07-16T09:08:09;52115.09;;;-145.37;76.32
13486;BME280;6815;59.336;17.998;2023-07-16T09:10:34;52051.22;;;-145.37;76.12
13486;BME280;6815;59.336;17.998;2023-07-16T09:13:00;52067.19;;;-145.37;76.32
13486;BME280;6815;59.336;17.998;2023-07-16T09:15:26;52119.09;;;-145.37;76.91
13486;BME280;6815;59.336;17.998;2023-07-16T09:17:54;52035.25;;;-145.37;77.02
13486;BME280;6815;59.336;17.998;2023-07-16T09:20:20;52093.16;;;-145.37;78.06
13486;BME280;6815;59.336;17.998;2023-07-16T09:22:47;52065.19;;;-145.37;78.82
13486;BME280;6815;59.336;17.998;2023-07-16T09:25:12;52093.16;;;-145.37;79.82
13486;BME280;6815;59.336;17.998;2023-07-16T09:27:38;52103.13;;;-145.37;82.33
13486;BME280;6815;59.336;17.998;2023-07-16T09:30:04;52091.16;;;-145.37;83.53
13486;BME280;6815;59.336;17.998;2023-07-16T09:32:38;52073.19;;;-145.37;82.04
13486;BME280;6815;59.336;17.998;2023-07-16T09:35:09;52065.19;;;-145.37;81.69
13486;BME280;6815;59.336;17.998;2023-07-16T09:37:37;52089.16;;;-145.37;84.55
13486;BME280;6815;59.336;17.998;2023-07-16T09:40:05;52103.13;;;-145.37;84.85
13486;BME280;6815;59.336;17.998;2023-07-16T09:42:38;52109.13;;;-145.37;85.16
13486;BME280;6815;59.336;17.998;2023-07-16T09:45:05;52061.22;;;-145.37;84.14
13486;BME280;6815;59.336;17.998;2023-07-16T09:47:31;52091.16;;;-145.37;88.16
13486;BME280;6815;59.336;17.998;2023-07-16T09:49:56;52089.16;;;-145.37;87.71
13486;BME280;6815;59.336;17.998;2023-07-16T09:52:26;52077.19;;;-145.37;87.91
13486;BME280;6815;59.336;17.998;2023-07-16T09:54:55;52095.16;;;-145.37;88.58
13486;BME280;6815;59.336;17.998;2023-07-16T09:57:22;52095.16;;;-145.37;87.14
13486;BME280;6815;59.336;17.998;2023-07-16T09:59:49;52073.19;;;-145.37;88.81
13486;BME280;6815;59.336;17.998;2023-07-16T10:02:17;52059.22;;;-145.37;90.65
13486;BME280;6815;59.336;17.998;2023-07-16T10:04:43;52115.09;;;-145.37;91.35
13486;BME280;6815;59.336;17.998;2023-07-16T10:07:20;52109.13;;;-145.37;90.85
13486;BME280;6815;59.336;17.998;2023-07-16T10:09:54;52037.25;;;-145.37;89.40
13486;BME280;6815;59.336;17.998;2023-07-16T10:12:22;52085.16;;;-145.37;90.41
13486;BME280;6815;59.336;17.998;2023-07-16T10:14:52;52089.16;;;-145.37;92.23
13486;BME280;6815;59.336;17.998;2023-07-16T10:17:25;52089.16;;;-145.37;91.71
13486;BME280;6815;59.336;17.998;2023-07-16T10:19:57;52119.09;;;-145.37;93.10
13486;BME280;6815;59.336;17.998;2023-07-16T10:25:02;52127.09;;;-145.37;93.01
13486;BME280;6815;59.336;17.998;2023-07-16T10:27:29;52107.13;;;-145.37;94.15
13486;BME280;6815;59.336;17.998;2023-07-16T10:29:55;52141.06;;;-145.37;94.80
13486;BME280;6815;59.336;17.998;2023-07-16T10:32:21;52079.19;;;-145.37;94.84
13486;BME280;6815;59.336;17.998;2023-07-16T10:34:46;52113.09;;;-145.37;92.95
13486;BME280;6815;59.336;17.998;2023-07-16T10:37:12;52081.16;;;-145.37;94.63
13486;BME280;6815;59.336;17.998;2023-07-16T10:39:48;52210.91;;;-145.37;95.78
13486;BME280;6815;59.336;17.998;2023-07-16T10:42:15;52125.09;;;-145.37;95.38
13486;BME280;6815;59.336;17.998;2023-07-16T10:44:41;52089.16;;;-145.37;94.13
13486;BME280;6815;59.336;17.998;2023-07-16T10:47:07;52093.16;;;-145.37;94.41
13486;BME280;6815;59.336;17.998;2023-07-16T10:49:33;52180.97;;;-145.37;94.49
13486;BME280;6815;59.336;17.998;2023-07-16T10:52:00;52073.19;;;-145.37;93.54
13486;BME280;6815;59.336;17.998;2023-07-16T10:54:26;52147.03;;;-145.37;93.72
13486;BME280;6815;59.336;17.998;2023-07-16T10:56:51;52105.13;;;-145.37;95.38
13486;BME280;6815;59.336;17.998;2023-07-16T10:59:17;52065.19;;;-145.37;92.85
13486;BME280;6815;59.336;17.998;2023-07-16T11:01:43;52061.22;;;-145.37;91.50
13486;BME280;6815;59.336;17.998;2023-07-16T11:04:09;52113.09;;;-145.37;91.33
13486;BME280;6815;59.336;17.998;2023-07-16T11:06:34;52095.16;;;-145.37;91.36
13486;BME280;6815;59.336;17.998;2023-07-16T11:09:10;52093.16;;;-145.37;91.85
13486;BME280;6815;59.336;17.998;2023-07-16T11:11:36;52093.16;;;-145.37;92.05
13486;BME280;6815;59.336;17.998;2023-07-16T11:14:06;52101.13;;;-145.37;92.62
13486;BME280;6815;59.336;17.998;2023-07-16T11:16:35;52111.13;;;-145.37;92.43
13486;BME280;6815;59.336;17.998;2023-07-16T11:19:05;52095.16;;;-145.37;93.58
13486;BME280;6815;59.336;17.998;2023-07-16T11:21:33;52119.09;;;-145.37;93.39
13486;BME280;6815;59.336;17.998;2023-07-16T11:24:14;52161.03;;;-145.37;93.11
13486;BME280;6815;59.336;17.998;2023-07-16T11:26:50;52103.13;;;-145.37;93.19
13486;BME280;6815;59.336;17.998;2023-07-16T11:29:15;52119.09;;;-145.37;93.22
13486;BME280;6815;59.336;17.998;2023-07-16T11:31:41;52139.06;;;-145.37;91.92
13486;BME280;6815;59.336;17.998;2023-07-16T11:34:07;52107.13;;;-145.37;91.86
13486;BME280;6815;59.336;17.998;2023-07-16T11:36:33;52115.09;;;-145.37;91.67
13486;BME280;6815;59.336;17.998;2023-07-16T11:38:58;52083.16;;;-145.37;91.61
13486;BME280;6815;59.336;17.998;2023-07-16T11:41:24;52095.16;;;-145.37;90.78
13486;BME280;6815;59.336;17.998;2023-07-16T11:43:49;52107.13;;;-145.37;89.08
13486;BME280;6815;59.336;17.998;2023-07-16T11:46:16;52069.19;;;-145.37;87.58
13486;BME280;6815;59.336;17.998;2023-07-16T11:48:42;52093.16;;;-145.37;87.12
13486;BME280;6815;59.336;17.998;2023-07-16T11:51:08;52085.16;;;-145.37;86.81
13486;BME280;6815;59.336;17.998;2023-07-16T11:53:33;52105.13;;;-145.37;86.69
13486;BME280;6815;59.336;17.998;2023-07-16T11:55:59;52115.09;;;-145.37;86.61
13486;BME280;6815;59.336;17.998;2023-07-16T11:58:24;52097.13;;;-145.37;86.59
13486;BME280;6815;59.336;17.998;2023-07-16T12:00:49;52133.06;;;-145.37;85.96
13486;BME280;6815;59.336;17.998;2023-07-16T12:03:16;52081.16;;;-145.37;85.38
13486;BME280;6815;59.336;17.998;2023-07-16T12:05:42;52234.88;;;-145.37;84.93
13486;BME280;6815;59.336;17.998;2023-07-16T12:08:07;52083.16;;;-145.37;85.30
13486;BME280;6815;59.336;17.998;2023-07-16T12:10:42;52105.13;;;-145.37;84.73
13486;BME280;6815;59.336;17.998;2023-07-16T12:13:07;52113.09;;;-145.37;84.21
13486;BME280;6815;59.336;17.998;2023-07-16T12:15:32;52093.16;;;-145.37;83.75
13486;BME280;6815;59.336;17.998;2023-07-16T12:17:59;52077.19;;;-145.37;83.04
13486;BME280;6815;59.336;17.998;2023-07-16T12:20:24;52069.19;;;-145.37;81.50
13486;BME280;6815;59.336;17.998;2023-07-16T12:22:50;52055.22;;;-145.37;79.67
13486;BME280;6815;59.336;17.998;2023-07-16T12:25:16;52085.16;;;-145.37;78.40
13486;BME280;6815;59.336;17.998;2023-07-16T12:27:41;52075.19;;;-145.37;77.25
13486;BME280;6815;59.336;17.998;2023-07-16T12:30:07;52091.16;;;-145.37;77.57
13486;BME280;6815;59.336;17.998;2023-07-16T12:32:33;52067.19;;;-145.37;77.77
13486;BME280;6815;59.336;17.998;2023-07-16T12:34:58;52083.16;;;-145.37;77.32
13486;BME280;6815;59.336;17.998;2023-07-16T12:37:25;52105.13;;;-145.37;76.99
13486;BME280;6815;59.336;17.998;2023-07-16T12:39:51;52135.06;;;-145.37;77.24
13486;BME280;6815;59.336;17.998;2023-07-16T12:42:17;52077.19;;;-145.37;77.46